Brighton, Indiana
Current Conditions -  °F | °C
As of 6:34 PM on Thursday 18 Dec 2014 (Local Time) from KIRS Reporting Station
Overcast Overcast  
Wind Chill: 20°   Ceiling: 1300
Heat Index: 27°   Visibility: 10mi
Dew Point: 25°   Wind: 6mph
Humidity: 93%   Direction: 260°W
Pressure: 30.19"   Gusts: NA
Location:  41.7293°N, 85.4292°W
Report Text: KIRS 182334Z AUTO 26005KT 10SM BKN013 OVC029 M03/M04 A3019 RMK AO2
Loading
Personal Weather Stations






























Interactive Weather Map New forecast layout! Learn more

10-Day Weather Forecast

Advertisements
Track Severe Weather on mobile